Time;durP1;ratioP1;P1;durP2;ratioP2;P2;SDS_P1;SDS_P2;PMS_P1;PMS_P2;Temp;Humidity;BMP_temperature;BMP_pressure;BME280_temperature;BME280_humidity;BME280_pressure;Samples;Min_cycle;Max_cycle;Signal;HPM_P1;HPM_P2
2023/07/27 00:04:47;;;;;;;2.97;1.73;;;;;;;24.48;57.43;100202.66;10251380;28;96717;-78
2023/07/27 00:09:51;;;;;;;2.72;1.45;;;;;;;24.46;57.59;100194.72;10251120;28;96700;-77
2023/07/27 00:14:54;;;;;;;3.17;1.57;;;;;;;24.30;57.88;100194.53;10252768;28;96830;-78
2023/07/27 00:19:59;;;;;;;4.10;1.63;;;;;;;24.12;58.60;100190.03;10251442;28;96694;-78
2023/07/27 00:25:02;;;;;;;3.10;1.70;;;;;;;24.10;58.73;100186.69;10251985;28;97502;-77
2023/07/27 00:30:07;;;;;;;2.43;1.50;;;;;;;24.12;58.86;100182.81;10252413;28;96997;-78
2023/07/27 00:35:11;;;;;;;3.08;1.70;;;;;;;24.12;58.83;100190.91;10251227;28;96757;-78
2023/07/27 00:40:15;;;;;;;2.45;1.17;;;;;;;24.08;59.07;100186.78;10251388;28;96662;-78
2023/07/27 00:45:18;;;;;;;5.57;1.37;;;;;;;24.03;58.96;100180.19;10253309;28;97627;-78
2023/07/27 00:50:23;;;;;;;5.43;1.57;;;;;;;24.06;58.96;100180.75;10291306;28;96855;-78
2023/07/27 00:55:26;;;;;;;3.38;1.80;;;;;;;24.07;59.02;100184.25;10277367;28;96672;-78
2023/07/27 01:00:31;;;;;;;2.20;1.27;;;;;;;23.88;59.73;100176.25;10249761;28;96779;-78
2023/07/27 01:05:36;;;;;;;2.55;1.33;;;;;;;23.67;60.16;100181.84;10278690;28;97475;-78
2023/07/27 01:10:50;;;;;;;3.30;1.65;;;;;;;23.61;60.48;100175.22;10290967;28;96604;-78
2023/07/27 01:15:59;;;;;;;3.67;1.27;;;;;;;23.59;60.55;100177.22;10289937;28;96931;-78
2023/07/27 01:21:11;;;;;;;3.47;1.38;;;;;;;23.49;61.15;100180.88;10289651;28;96774;-77
2023/07/27 01:26:30;;;;;;;5.22;1.83;;;;;;;23.39;61.76;100175.50;10290562;28;96680;-78
2023/07/27 01:31:42;;;;;;;2.33;1.30;;;;;;;23.38;61.64;100175.66;10290020;28;96576;-78
2023/07/27 01:36:49;;;;;;;2.17;1.50;;;;;;;23.17;62.33;100177.66;10289982;28;96694;-78
2023/07/27 01:41:54;;;;;;;4.75;1.63;;;;;;;23.14;62.33;100176.13;10289883;28;96802;-78
2023/07/27 01:47:18;;;;;;;3.72;1.83;;;;;;;22.99;63.09;100172.13;10288381;28;96707;-78
2023/07/27 01:52:23;;;;;;;5.63;2.33;;;;;;;22.86;63.31;100170.72;10288633;28;96502;-78
2023/07/27 01:57:27;;;;;;;7.93;2.20;;;;;;;22.87;63.07;100175.94;10253953;28;96629;-78
2023/07/27 02:02:32;;;;;;;4.32;2.03;;;;;;;22.78;63.45;100176.81;10248746;28;96600;-78
2023/07/27 02:07:36;;;;;;;5.30;2.33;;;;;;;22.77;63.64;100179.56;10248665;28;96734;-78
2023/07/27 02:13:02;;;;;;;6.10;1.80;;;;;;;22.73;63.62;100173.66;10249143;28;96771;-77
2023/07/27 02:18:15;;;;;;;2.97;1.88;;;;;;;22.79;63.42;100177.63;10248047;28;97123;-78
2023/07/27 02:23:20;;;;;;;4.97;2.10;;;;;;;22.70;63.57;100181.16;10248671;28;96785;-78
2023/07/27 02:28:28;;;;;;;3.65;2.20;;;;;;;22.66;63.97;100177.03;10255205;28;97427;-78
2023/07/27 02:33:33;;;;;;;4.35;2.00;;;;;;;22.53;64.41;100174.59;10255252;28;96756;-78
2023/07/27 02:38:37;;;;;;;4.53;2.22;;;;;;;22.47;64.53;100175.19;10254928;28;96673;-78
2023/07/27 02:43:40;;;;;;;3.20;1.70;;;;;;;22.49;64.35;100176.72;10253839;28;96807;-78
2023/07/27 02:48:45;;;;;;;3.13;1.95;;;;;;;22.47;64.57;100178.69;10255714;28;97838;-78
2023/07/27 02:53:48;;;;;;;5.22;2.25;;;;;;;22.50;64.12;100182.94;10254818;28;97869;-78
2023/07/27 02:59:09;;;;;;;4.15;2.15;;;;;;;22.34;64.68;100183.47;10248936;28;97729;-78
2023/07/27 03:04:13;;;;;;;5.03;2.10;;;;;;;22.24;65.03;100181.72;10279296;28;97344;-78
2023/07/27 03:09:17;;;;;;;4.25;2.15;;;;;;;22.23;65.13;100175.50;10294781;28;97275;-77
2023/07/27 03:14:20;;;;;;;4.17;2.17;;;;;;;22.35;64.77;100181.63;10294711;28;96817;-78
2023/07/27 03:19:25;;;;;;;5.88;2.20;;;;;;;22.24;65.12;100179.91;10293704;28;97722;-78
2023/07/27 03:24:28;;;;;;;3.97;2.03;;;;;;;22.07;65.70;100175.16;10294620;28;97834;-78
2023/07/27 03:29:32;;;;;;;4.55;2.75;;;;;;;22.03;65.67;100167.53;10294269;28;96713;-78
2023/07/27 03:34:37;;;;;;;4.45;2.15;;;;;;;22.04;65.51;100169.25;10292840;28;96947;-78
2023/07/27 03:39:40;;;;;;;4.78;2.08;;;;;;;22.00;65.65;100176.72;10292566;28;96745;-78
2023/07/27 03:44:43;;;;;;;4.55;2.67;;;;;;;21.93;65.77;100164.81;10293833;28;97825;-78
2023/07/27 03:49:48;;;;;;;3.13;1.93;;;;;;;21.84;66.26;100170.97;10293252;28;96912;-78
2023/07/27 03:55:09;;;;;;;5.25;2.35;;;;;;;21.68;66.89;100170.59;10268743;28;97783;-78
2023/07/27 04:00:13;;;;;;;4.03;2.47;;;;;;;21.64;66.88;100163.78;10252669;28;96588;-78
2023/07/27 04:05:17;;;;;;;;;;;;;;;21.39;67.83;100162.41;10252956;28;96716;-78
2023/07/27 04:10:21;;;;;;;3.53;2.73;;;;;;;21.49;67.47;100175.81;10262953;28;96895;-78
2023/07/27 04:15:24;;;;;;;3.85;2.38;;;;;;;21.34;68.18;100177.16;10292459;28;96717;-78
2023/07/27 04:20:29;;;;;;;4.00;2.40;;;;;;;21.27;68.79;100179.50;10292001;28;96888;-78
2023/07/27 04:25:32;;;;;;;4.18;2.28;;;;;;;21.15;69.28;100180.50;10291422;28;96645;-78
2023/07/27 04:30:53;;;;;;;5.38;2.70;;;;;;;21.28;68.90;100186.53;10286635;28;96642;-78
2023/07/27 04:36:01;;;;;;;6.25;2.75;;;;;;;21.36;68.19;100176.00;10291223;28;96862;-78
2023/07/27 04:41:22;;;;;;;4.38;2.55;;;;;;;21.36;68.26;100172.50;10285645;28;96541;-78
2023/07/27 04:46:25;;;;;;;4.47;2.20;;;;;;;21.40;68.12;100176.59;10290872;28;96980;-78
2023/07/27 04:51:30;;;;;;;5.70;3.10;;;;;;;21.42;68.17;100180.00;10290792;28;97806;-78
2023/07/27 04:56:33;;;;;;;2.92;2.38;;;;;;;21.40;68.39;100182.81;10255359;28;97017;-78
2023/07/27 05:01:37;;;;;;;3.83;2.53;;;;;;;21.38;68.63;100186.63;10251979;28;97007;-78
2023/07/27 05:06:41;;;;;;;3.88;2.58;;;;;;;21.43;68.52;100195.94;10250576;28;96745;-78
2023/07/27 05:11:45;;;;;;;4.55;2.65;;;;;;;21.45;68.73;100195.81;10251190;28;97054;-77
2023/07/27 05:16:48;;;;;;;3.65;2.60;;;;;;;21.44;68.23;100192.31;10248564;28;97697;-78
2023/07/27 05:22:10;;;;;;;4.22;2.40;;;;;;;21.47;68.77;100199.19;10289625;28;97460;-78
2023/07/27 05:27:13;;;;;;;4.80;2.72;;;;;;;21.56;68.03;100203.78;10290385;28;96665;-78
2023/07/27 05:32:17;;;;;;;5.63;2.75;;;;;;;21.44;68.80;100208.38;10290321;28;96777;-78
2023/07/27 05:37:21;;;;;;;5.75;2.70;;;;;;;21.32;69.19;100217.44;10288932;28;96790;-78
2023/07/27 05:42:25;;;;;;;3.65;2.80;;;;;;;21.40;69.24;100214.09;10290019;28;96844;-78
2023/07/27 05:47:29;;;;;;;4.10;2.42;;;;;;;21.39;69.12;100221.28;10289495;28;96686;-78
2023/07/27 05:52:34;;;;;;;3.72;2.92;;;;;;;21.40;69.10;100214.94;10285616;28;96756;-78
2023/07/27 05:57:37;;;;;;;3.97;2.70;;;;;;;21.51;68.82;100224.75;10248543;28;96933;-78
2023/07/27 06:02:40;;;;;;;4.20;2.50;;;;;;;21.52;68.86;100233.63;10247779;28;96824;-77
2023/07/27 06:07:45;;;;;;;6.35;2.88;;;;;;;21.49;68.68;100245.44;10247801;28;97638;-77
2023/07/27 06:12:48;;;;;;;5.22;2.67;;;;;;;21.66;68.24;100244.03;10249146;28;97830;-78
2023/07/27 06:17:51;;;;;;;4.90;2.88;;;;;;;21.71;67.97;100252.53;10247937;28;97635;-78
2023/07/27 06:22:56;;;;;;;4.28;2.70;;;;;;;21.70;68.23;100257.03;10248180;28;96769;-78
2023/07/27 06:27:59;;;;;;;5.25;3.25;;;;;;;21.65;68.56;100272.63;10248620;28;97036;-78
2023/07/27 06:33:03;;;;;;;3.90;2.83;;;;;;;21.64;68.91;100262.06;10248141;28;97738;-78
2023/07/27 06:38:25;;;;;;;5.32;3.47;;;;;;;21.60;69.17;100268.63;10243659;28;97194;-78
2023/07/27 06:43:28;;;;;;;4.55;2.83;;;;;;;21.34;70.25;100270.84;10249507;28;97684;-78
2023/07/27 06:48:31;;;;;;;4.13;2.50;;;;;;;21.36;69.79;100275.06;10247668;28;96709;-78
2023/07/27 06:53:36;;;;;;;4.35;3.03;;;;;;;21.31;69.98;100277.28;10247498;28;96743;-78
2023/07/27 06:58:39;;;;;;;5.15;2.92;;;;;;;21.31;70.12;100290.66;10246394;28;97558;-78
2023/07/27 07:03:43;;;;;;;5.25;3.05;;;;;;;21.48;69.61;100289.28;10284938;28;97787;-78
2023/07/27 07:08:48;;;;;;;4.57;2.92;;;;;;;21.23;70.17;100297.63;10287819;28;96890;-78
2023/07/27 07:13:51;;;;;;;4.65;2.95;;;;;;;21.19;70.40;100305.06;10292334;28;97002;-78
2023/07/27 07:18:54;;;;;;;4.43;2.67;;;;;;;21.32;69.77;100304.91;10271495;28;96976;-78
2023/07/27 07:23:59;;;;;;;4.88;3.05;;;;;;;21.25;70.30;100301.03;10253980;28;96694;-78
2023/07/27 07:29:21;;;;;;;5.80;3.22;;;;;;;21.41;69.70;100315.69;10247250;28;96688;-78
2023/07/27 07:34:24;;;;;;;3.30;2.42;;;;;;;21.43;69.35;100324.44;10254636;28;96666;-78
2023/07/27 07:39:29;;;;;;;3.33;2.42;;;;;;;21.67;68.70;100328.75;10253331;28;96742;-78
2023/07/27 07:44:32;;;;;;;3.92;2.42;;;;;;;21.60;68.87;100332.91;10253401;28;96571;-78
2023/07/27 07:49:36;;;;;;;3.10;2.20;;;;;;;22.00;67.68;100340.19;10287162;22;96819;-78
2023/07/27 07:54:40;;;;;;;4.30;2.80;;;;;;;22.00;68.00;100344.69;10256661;28;97277;-78
2023/07/27 07:59:44;;;;;;;4.55;2.47;;;;;;;22.20;67.42;100335.78;10253044;28;98555;-78
2023/07/27 08:04:47;;;;;;;5.70;2.53;;;;;;;22.44;66.95;100341.69;10252807;28;97022;-78
2023/07/27 08:09:52;;;;;;;5.33;2.30;;;;;;;22.54;66.53;100347.97;10274113;28;97192;-78
2023/07/27 08:14:55;;;;;;;5.90;2.85;;;;;;;22.31;66.48;100344.63;10292417;28;96726;-77
2023/07/27 08:20:16;;;;;;;3.88;2.67;;;;;;;22.34;66.73;100351.53;10292124;28;96800;-78
2023/07/27 08:25:21;;;;;;;4.73;3.03;;;;;;;22.26;67.04;100356.72;10291196;28;96951;-78
2023/07/27 08:30:25;;;;;;;5.75;3.03;;;;;;;22.09;67.18;100352.78;10292480;28;97793;-78
2023/07/27 08:35:46;;;;;;;4.43;2.88;;;;;;;21.85;68.31;100359.38;10285671;28;96526;-78
2023/07/27 08:40:59;;;;;;;3.83;2.65;;;;;;;21.70;68.39;100358.81;10290761;28;96740;-78
2023/07/27 08:46:03;;;;;;;3.95;2.85;;;;;;;21.82;67.90;100375.66;10289177;28;97142;-78
2023/07/27 08:51:07;;;;;;;6.07;3.88;;;;;;;21.63;68.38;100368.31;10251371;28;96586;-78
2023/07/27 08:56:11;;;;;;;5.10;3.17;;;;;;;21.57;68.72;100382.25;10250514;28;96726;-78
2023/07/27 09:01:15;;;;;;;6.15;3.25;;;;;;;21.32;69.28;100387.91;10251329;28;96885;-78
2023/07/27 09:06:37;;;;;;;6.57;3.35;;;;;;;21.20;69.75;100386.22;10251285;28;97672;-78
2023/07/27 09:11:43;;;;;;;7.03;3.75;;;;;;;21.22;69.70;100397.66;10250441;28;96997;-78
2023/07/27 09:16:50;;;;;;;6.68;3.40;;;;;;;21.26;69.32;100405.31;10251233;28;98086;-78
2023/07/27 09:21:58;;;;;;;5.95;3.53;;;;;;;21.46;68.58;100409.03;10250219;28;97280;-78
2023/07/27 09:27:09;;;;;;;6.03;3.88;;;;;;;21.34;69.35;100415.41;10249525;28;96749;-78
2023/07/27 09:32:35;;;;;;;7.05;4.22;;;;;;;21.40;69.40;100418.44;10249412;28;96707;-78
2023/07/27 09:37:42;;;;;;;7.13;4.97;;;;;;;21.54;68.87;100405.75;10249651;28;96903;-78
2023/07/27 09:42:47;;;;;;;7.35;4.25;;;;;;;21.49;69.38;100406.09;10249644;28;96625;-78
2023/07/27 09:47:51;;;;;;;10.23;4.75;;;;;;;21.78;68.17;100425.16;10248933;28;96863;-78
2023/07/27 09:52:57;;;;;;;7.07;4.50;;;;;;;21.53;69.04;100429.00;10249646;28;96686;-78
2023/07/27 09:58:20;;;;;;;6.53;3.85;;;;;;;21.45;69.24;100418.91;10244649;28;96777;-78
2023/07/27 10:03:23;;;;;;;11.55;4.93;;;;;;;21.40;69.51;100423.78;10249413;28;97241;-78
2023/07/27 10:08:27;;;;;;;6.57;4.25;;;;;;;21.40;69.69;100439.84;10250175;28;96640;-78
2023/07/27 10:13:49;;;;;;;7.35;4.00;;;;;;;21.31;69.80;100458.50;10242452;28;97821;-78
2023/07/27 10:18:55;;;;;;;6.95;3.97;;;;;;;21.35;69.28;100459.94;10248136;28;96736;-78
2023/07/27 10:24:00;;;;;;;6.00;3.67;;;;;;;21.29;70.05;100479.19;10248000;28;96724;-78
2023/07/27 10:29:15;;;;;;;5.82;3.92;;;;;;;21.33;69.69;100473.44;10248509;28;97154;-78
2023/07/27 10:34:19;;;;;;;6.07;3.85;;;;;;;21.30;69.66;100475.50;10248269;28;96555;-78
2023/07/27 10:39:30;;;;;;;7.50;3.85;;;;;;;21.28;69.50;100480.13;10248048;28;97435;-78
2023/07/27 10:44:54;;;;;;;5.32;3.47;;;;;;;21.46;68.97;100490.25;10241893;28;96672;-78
2023/07/27 10:49:58;;;;;;;5.90;3.85;;;;;;;21.46;68.85;100492.06;10253459;28;96657;-78
2023/07/27 10:55:03;;;;;;;5.22;3.60;;;;;;;21.80;67.87;100495.50;10254632;28;96822;-78
2023/07/27 11:00:09;;;;;;;6.15;3.50;;;;;;;22.25;66.00;100479.19;10255635;28;96647;-78
2023/07/27 11:05:14;;;;;;;5.43;3.33;;;;;;;22.75;64.71;100479.41;10254664;28;96784;-78
2023/07/27 11:10:17;;;;;;;4.38;2.60;;;;;;;23.08;63.64;100482.69;10253909;28;96676;-78
2023/07/27 11:15:40;;;;;;;4.80;3.45;;;;;;;23.30;62.84;100493.25;10249045;28;96802;-78
2023/07/27 11:20:43;;;;;;;4.55;3.03;;;;;;;23.55;62.05;100500.03;10254093;28;96882;-79
2023/07/27 11:26:05;;;;;;;4.47;3.08;;;;;;;23.45;62.25;100509.84;10247473;28;97331;-78
2023/07/27 11:31:16;;;;;;;5.22;3.00;;;;;;;23.32;62.17;100507.41;10254379;28;97723;-78
2023/07/27 11:36:20;;;;;;;6.07;3.10;;;;;;;23.66;60.75;100499.91;10253420;28;97760;-78
2023/07/27 11:41:24;;;;;;;4.37;3.00;;;;;;;23.68;60.42;100497.94;10253488;28;96698;-78
2023/07/27 11:46:51;;;;;;;4.83;3.10;;;;;;;23.89;59.88;100497.84;10245642;28;96923;-78
2023/07/27 11:51:54;;;;;;;6.00;3.28;;;;;;;24.12;59.38;100500.13;10245529;28;96745;-78
2023/07/27 11:56:58;;;;;;;6.33;3.27;;;;;;;23.85;59.65;100508.03;10252389;28;96708;-78
2023/07/27 12:02:19;;;;;;;4.72;3.05;;;;;;;23.64;59.89;100513.50;10246330;28;96999;-78
2023/07/27 12:07:26;;;;;;;4.78;3.28;;;;;;;23.92;59.07;100503.78;10252176;28;96750;-78
2023/07/27 12:12:30;;;;;;;3.85;2.97;;;;;;;24.16;58.57;100506.94;10252769;28;97895;-78
2023/07/27 12:17:37;;;;;;;3.97;2.55;;;;;;;23.84;58.50;100525.13;10248441;28;96769;-79
2023/07/27 12:22:41;;;;;;;3.85;2.67;;;;;;;24.29;57.67;100507.53;10252611;28;96709;-79
2023/07/27 12:27:45;;;;;;;4.07;2.70;;;;;;;24.48;56.10;100510.22;10252572;28;97802;-79
2023/07/27 12:32:51;;;;;;;3.90;2.60;;;;;;;24.37;56.26;100521.13;10251828;28;97672;-78
2023/07/27 12:37:55;;;;;;;4.90;3.17;;;;;;;24.40;56.63;100533.44;10251368;28;96834;-78
2023/07/27 12:42:59;;;;;;;4.30;2.80;;;;;;;24.37;56.81;100525.66;10252745;28;96687;-78
2023/07/27 12:48:05;;;;;;;3.67;2.40;;;;;;;24.45;56.76;100521.25;10232865;28;97262;-78
2023/07/27 12:53:26;;;;;;;3.40;2.53;;;;;;;24.80;55.85;100518.81;10204966;28;97718;-78
2023/07/27 12:58:47;;;;;;;3.05;2.38;;;;;;;24.63;55.07;100513.31;10229387;28;96747;-79
2023/07/27 13:04:09;;;;;;;3.40;2.17;;;;;;;25.03;54.64;100505.06;10244470;28;97068;-78
2023/07/27 13:09:13;;;;;;;4.65;2.28;;;;;;;25.41;53.92;100505.78;10249683;28;96715;-78
2023/07/27 13:14:17;;;;;;;3.95;2.20;;;;;;;25.56;53.71;100503.41;10251179;28;96739;-78
2023/07/27 13:19:22;;;;;;;3.22;2.20;;;;;;;25.60;53.32;100494.03;10249675;28;97597;-78
2023/07/27 13:24:26;;;;;;;4.63;2.45;;;;;;;25.97;53.00;100499.38;10250383;28;97760;-78
2023/07/27 13:29:32;;;;;;;3.55;2.13;;;;;;;26.21;52.55;100488.81;10249926;28;96599;-78
2023/07/27 13:34:37;;;;;;;4.38;2.30;;;;;;;26.70;51.06;100475.59;10250965;28;96800;-78
2023/07/27 13:39:41;;;;;;;2.70;2.08;;;;;;;26.67;50.89;100478.63;10249558;28;97298;-78
2023/07/27 13:44:45;;;;;;;3.15;1.95;;;;;;;26.67;50.74;100481.31;10249294;28;96821;-78
2023/07/27 13:49:49;;;;;;;4.25;2.33;;;;;;;26.58;50.69;100476.00;10248135;28;96794;-78
2023/07/27 13:55:10;;;;;;;2.75;2.17;;;;;;;26.54;50.57;100478.16;10247227;28;97003;-78
2023/07/27 14:00:15;;;;;;;3.17;2.28;;;;;;;26.58;50.42;100470.59;10249124;28;97179;-78
2023/07/27 14:05:20;;;;;;;4.28;2.15;;;;;;;27.14;49.23;100462.91;10249770;28;97966;-79
2023/07/27 14:10:41;;;;;;;3.40;2.07;;;;;;;27.23;48.82;100470.06;10242578;28;96578;-78
2023/07/27 14:15:45;;;;;;;2.53;1.70;;;;;;;27.06;48.61;100446.63;10248685;28;96895;-79
2023/07/27 14:20:50;;;;;;;4.50;1.92;;;;;;;27.48;48.38;100443.94;10248771;28;97177;-78
2023/07/27 14:25:53;;;;;;;3.47;1.92;;;;;;;27.59;48.24;100443.66;10294448;28;97571;-78
2023/07/27 14:30:57;;;;;;;4.22;2.00;;;;;;;27.14;48.94;100446.69;10296365;28;97530;-78
2023/07/27 14:36:16;;;;;;;4.80;2.00;;;;;;;26.83;49.37;100431.97;10295697;28;97101;-79
2023/07/27 14:41:37;;;;;;;2.72;2.13;;;;;;;26.60;49.57;100426.25;10287631;28;96721;-78
2023/07/27 14:46:40;;;;;;;3.15;2.00;;;;;;;26.82;48.76;100417.63;10282944;28;96824;-77
2023/07/27 14:52:03;;;;;;;3.20;2.00;;;;;;;26.68;48.50;100423.59;10210107;28;97702;-79
2023/07/27 14:57:07;;;;;;;4.03;2.10;;;;;;;26.66;48.88;100414.81;10230985;28;97301;-78
2023/07/27 15:02:15;;;;;;;3.60;2.08;;;;;;;26.68;48.44;100418.19;10254967;28;96702;-78
2023/07/27 15:07:20;;;;;;;2.80;2.00;;;;;;;27.30;47.47;100424.31;10254661;28;97392;-78
2023/07/27 15:12:24;;;;;;;3.55;2.13;;;;;;;27.31;47.93;100418.72;10254993;28;96703;-78
2023/07/27 15:17:27;;;;;;;3.00;1.92;;;;;;;27.59;47.09;100416.63;10254581;28;96938;-78
2023/07/27 15:22:32;;;;;;;3.55;2.10;;;;;;;27.57;46.94;100408.69;10254084;28;97560;-78
2023/07/27 15:27:35;;;;;;;3.95;2.03;;;;;;;27.42;46.79;100402.22;10253671;28;96891;-79
2023/07/27 15:32:38;;;;;;;2.75;1.88;;;;;;;27.63;47.16;100410.72;10252566;28;96801;-78
2023/07/27 15:37:43;;;;;;;2.95;1.70;;;;;;;27.81;46.73;100395.22;10253187;28;96913;-79
2023/07/27 15:42:46;;;;;;;3.10;1.83;;;;;;;27.40;47.44;100397.97;10253273;28;97892;-78
2023/07/27 15:47:50;;;;;;;2.33;1.60;;;;;;;27.37;47.17;100392.91;10253263;28;96795;-79
2023/07/27 15:52:54;;;;;;;3.90;2.00;;;;;;;26.86;48.41;100391.13;10252984;28;96697;-78
2023/07/27 15:58:16;;;;;;;3.20;1.80;;;;;;;26.82;48.35;100387.91;10248207;28;96785;-79
2023/07/27 16:03:19;;;;;;;1.95;1.38;;;;;;;26.40;49.27;100386.97;10253842;28;96813;-78
2023/07/27 16:08:24;;;;;;;2.50;1.65;;;;;;;26.69;48.70;100390.22;10293488;28;96767;-79
2023/07/27 16:13:27;;;;;;;3.58;1.52;;;;;;;26.63;49.06;100374.66;10293150;28;96727;-78
2023/07/27 16:18:31;;;;;;;;;;;;;;;26.60;48.96;100376.81;10292997;28;96923;-78
2023/07/27 16:23:38;;;;;;;3.25;1.80;;;;;;;26.50;49.06;100374.25;10290868;28;96796;-78
2023/07/27 16:28:42;;;;;;;2.60;1.73;;;;;;;26.41;49.56;100374.31;10291943;28;97497;-78
2023/07/27 16:34:03;;;;;;;2.45;1.83;;;;;;;26.53;49.03;100376.59;10287594;28;96529;-79
2023/07/27 16:39:08;;;;;;;;;;;;;;;26.43;49.20;100388.50;10290944;28;97932;-79
2023/07/27 16:44:11;;;;;;;;;;;;;;;25.93;50.06;100393.66;10291833;28;97870;-79
2023/07/27 16:49:14;;;;;;;2.30;1.42;;;;;;;25.91;50.03;100398.34;10264788;28;97256;-78
2023/07/27 16:54:19;;;;;;;2.45;1.38;;;;;;;25.57;50.71;100390.06;10251248;28;96795;-78
2023/07/27 16:59:40;;;;;;;1.75;1.38;;;;;;;25.36;51.34;100397.59;10245105;28;96792;-79
2023/07/27 17:05:01;;;;;;;1.50;1.13;;;;;;;25.39;51.23;100394.59;10244534;28;97550;-78
2023/07/27 17:10:07;;;;;;;1.80;1.10;;;;;;;25.37;51.29;100393.03;10250921;28;96690;-78
2023/07/27 17:15:11;;;;;;;3.22;1.48;;;;;;;25.29;51.61;100391.13;10250085;28;97657;-78
2023/07/27 17:20:18;;;;;;;2.65;1.38;;;;;;;25.21;52.23;100391.00;10250168;28;96760;-78
2023/07/27 17:25:22;;;;;;;2.30;1.38;;;;;;;24.91;52.50;100403.88;10250593;28;97647;-79
2023/07/27 17:30:43;;;;;;;2.70;1.52;;;;;;;25.02;52.39;100406.41;10244361;28;96753;-78
2023/07/27 17:35:48;;;;;;;2.07;1.40;;;;;;;24.97;52.37;100405.97;10249745;28;97979;-79
2023/07/27 17:40:54;;;;;;;2.55;1.50;;;;;;;24.84;52.50;100401.75;10249803;28;96635;-78
2023/07/27 17:46:15;;;;;;;2.28;1.40;;;;;;;24.94;52.33;100403.56;10249571;28;97033;-79
2023/07/27 17:51:18;;;;;;;3.80;1.50;;;;;;;24.69;52.92;100410.47;10250088;28;96827;-78
2023/07/27 17:56:23;;;;;;;3.57;1.70;;;;;;;24.64;52.91;100408.22;10248856;28;97442;-78
2023/07/27 18:01:43;;;;;;;2.67;1.33;;;;;;;24.44;53.37;100416.50;10247011;28;96891;-78
2023/07/27 18:06:46;;;;;;;1.77;1.20;;;;;;;24.64;52.95;100415.44;10248272;28;97800;-78
2023/07/27 18:11:52;;;;;;;2.37;1.47;;;;;;;24.50;53.42;100416.75;10249101;28;97014;-78
2023/07/27 18:16:55;;;;;;;2.85;1.55;;;;;;;24.55;53.04;100410.94;10248358;28;96796;-78
2023/07/27 18:21:58;;;;;;;2.03;1.40;;;;;;;24.16;53.64;100415.50;10248767;28;96795;-78
2023/07/27 18:27:03;;;;;;;1.90;1.20;;;;;;;24.30;53.43;100425.84;10248425;28;97613;-79
2023/07/27 18:32:07;;;;;;;2.78;1.50;;;;;;;24.25;53.54;100428.09;10248342;28;97596;-78
2023/07/27 18:37:12;;;;;;;;;;;;;;;24.11;53.70;100431.22;10249262;28;97710;-78
2023/07/27 18:42:17;;;;;;;1.40;1.08;;;;;;;24.16;53.64;100439.69;10248839;28;96749;-78
2023/07/27 18:47:20;;;;;;;3.70;1.75;;;;;;;24.02;53.92;100445.50;10247643;28;97187;-78
2023/07/27 18:52:23;;;;;;;2.53;1.50;;;;;;;24.00;53.99;100444.78;10248038;28;96940;-78
2023/07/27 18:57:28;;;;;;;2.37;1.40;;;;;;;24.03;53.83;100438.28;10247302;28;97813;-78
2023/07/27 19:02:31;;;;;;;2.47;1.35;;;;;;;23.83;54.38;100447.31;10247628;28;97828;-78
2023/07/27 19:07:35;;;;;;;1.37;0.93;;;;;;;23.80;54.54;100450.28;10248722;28;97149;-78
2023/07/27 19:12:40;;;;;;;3.50;1.83;;;;;;;23.78;54.50;100457.66;10254550;28;96785;-78
2023/07/27 19:17:43;;;;;;;2.70;1.58;;;;;;;23.75;54.53;100466.84;10254411;28;97534;-78
2023/07/27 19:22:46;;;;;;;2.10;1.30;;;;;;;23.52;54.97;100459.97;10254314;28;97187;-78
2023/07/27 19:27:51;;;;;;;2.78;1.42;;;;;;;23.50;55.03;100467.31;10254424;28;96839;-78
2023/07/27 19:32:54;;;;;;;1.70;1.08;;;;;;;23.43;55.15;100471.53;10254560;28;98042;-78
2023/07/27 19:37:57;;;;;;;1.93;1.10;;;;;;;23.19;55.63;100468.34;10253426;28;96719;-78
2023/07/27 19:43:02;;;;;;;2.70;1.20;;;;;;;23.17;56.00;100475.66;10253355;28;96707;-78
2023/07/27 19:48:06;;;;;;;1.85;1.25;;;;;;;23.13;56.28;100474.25;10251959;28;97156;-78
2023/07/27 19:53:09;;;;;;;2.50;1.25;;;;;;;23.04;56.01;100481.28;10252606;28;97049;-78
2023/07/27 19:58:14;;;;;;;2.63;1.23;;;;;;;23.01;56.20;100483.41;10252834;28;96917;-78
2023/07/27 20:03:17;;;;;;;1.40;0.98;;;;;;;23.02;56.28;100480.56;10270165;28;96776;-78
2023/07/27 20:08:21;;;;;;;2.70;1.50;;;;;;;22.96;56.47;100489.16;10293063;28;96678;-78
2023/07/27 20:13:46;;;;;;;1.50;1.20;;;;;;;22.88;56.53;100486.28;10292479;28;96740;-79
2023/07/27 20:18:49;;;;;;;1.50;1.10;;;;;;;22.88;56.66;100494.34;10284456;22;97671;-78
2023/07/27 20:23:53;;;;;;;1.97;1.23;;;;;;;22.90;56.62;100494.19;10252628;28;96575;-78
2023/07/27 20:28:57;;;;;;;2.47;1.40;;;;;;;22.99;56.59;100494.25;10252021;28;96795;-78
2023/07/27 20:34:01;;;;;;;1.40;1.10;;;;;;;22.86;56.64;100503.50;10251934;28;96701;-78
2023/07/27 20:39:04;;;;;;;2.07;1.23;;;;;;;22.90;56.51;100510.31;10254326;28;96784;-78
2023/07/27 20:44:09;;;;;;;1.93;1.20;;;;;;;22.96;56.73;100515.13;10251756;28;97949;-78
2023/07/27 20:49:12;;;;;;;1.52;1.00;;;;;;;22.87;56.78;100516.78;10250821;28;96789;-78
2023/07/27 20:54:16;;;;;;;1.70;1.00;;;;;;;22.80;57.01;100525.50;10252683;28;96856;-78
2023/07/27 20:59:20;;;;;;;2.83;1.20;;;;;;;22.82;56.95;100518.19;10249607;28;98325;-78
2023/07/27 21:04:24;;;;;;;2.05;1.30;;;;;;;22.94;56.66;100525.16;10251221;28;96971;-78
2023/07/27 21:09:27;;;;;;;2.20;1.30;;;;;;;22.83;56.75;100522.53;10253518;28;97721;-78
2023/07/27 21:14:32;;;;;;;2.17;1.15;;;;;;;22.80;56.85;100525.50;10272729;28;97846;-78
2023/07/27 21:19:35;;;;;;;2.60;1.05;;;;;;;22.95;56.33;100529.53;10249839;28;96843;-78
2023/07/27 21:24:39;;;;;;;1.90;1.30;;;;;;;22.85;56.71;100529.50;10249816;28;96827;-78
2023/07/27 21:30:02;;;;;;;2.03;1.05;;;;;;;22.81;56.66;100533.41;10243322;28;97111;-78
2023/07/27 21:35:06;;;;;;;1.58;1.08;;;;;;;22.80;56.82;100525.50;10249837;28;96838;-78
2023/07/27 21:40:10;;;;;;;1.35;1.02;;;;;;;22.80;56.64;100517.44;10249401;28;96814;-78
2023/07/27 21:45:17;;;;;;;1.83;1.20;;;;;;;22.71;57.04;100526.25;10250056;28;97060;-78
2023/07/27 21:50:21;;;;;;;1.77;1.55;;;;;;;22.66;57.07;100528.47;10249304;28;97896;-78
2023/07/27 21:55:24;;;;;;;2.10;1.50;;;;;;;22.64;57.11;100518.72;10249583;28;96624;-78
2023/07/27 22:00:29;;;;;;;2.42;1.27;;;;;;;22.53;57.35;100517.94;10250013;28;98553;-78
2023/07/27 22:05:32;;;;;;;2.17;1.30;;;;;;;22.52;57.25;100525.13;10250139;28;97923;-78
2023/07/27 22:10:35;;;;;;;2.92;1.58;;;;;;;22.55;57.07;100534.75;10249340;28;96889;-78
2023/07/27 22:15:40;;;;;;;2.17;1.10;;;;;;;22.63;56.72;100534.09;10248450;28;96988;-78
2023/07/27 22:20:44;;;;;;;2.40;1.50;;;;;;;22.61;56.75;100536.91;10276243;28;96803;-78
2023/07/27 22:25:47;;;;;;;2.30;1.33;;;;;;;22.54;56.64;100541.09;10289659;28;97929;-78
2023/07/27 22:30:52;;;;;;;2.65;1.38;;;;;;;22.56;56.24;100537.28;10288997;28;96919;-78
2023/07/27 22:35:55;;;;;;;2.22;1.52;;;;;;;22.57;56.12;100536.31;10288082;28;96681;-78
2023/07/27 22:40:59;;;;;;;1.67;1.25;;;;;;;22.48;55.76;100542.47;10288772;28;96743;-78
2023/07/27 22:46:05;;;;;;;1.92;1.20;;;;;;;22.48;55.78;100544.28;10295158;28;97846;-78
2023/07/27 22:51:08;;;;;;;2.25;1.33;;;;;;;22.59;55.99;100550.44;10295398;28;97007;-78
2023/07/27 22:56:12;;;;;;;2.33;1.25;;;;;;;22.64;55.77;100550.06;10215458;28;98183;-78
2023/07/27 23:01:17;;;;;;;2.65;1.33;;;;;;;22.67;55.99;100541.75;10224029;28;96751;-78
2023/07/27 23:06:20;;;;;;;2.35;1.42;;;;;;;22.60;55.96;100541.44;10254679;28;96648;-78
2023/07/27 23:11:24;;;;;;;2.17;1.50;;;;;;;22.61;55.73;100536.91;10254057;28;96706;-78
2023/07/27 23:16:28;;;;;;;2.38;1.52;;;;;;;22.67;55.50;100541.75;10254642;28;97781;-78
2023/07/27 23:21:32;;;;;;;3.25;1.50;;;;;;;22.76;55.39;100545.50;10254164;28;97698;-78
2023/07/27 23:26:35;;;;;;;2.65;1.40;;;;;;;22.73;55.19;100535.03;10254739;28;96778;-78
2023/07/27 23:31:40;;;;;;;1.90;1.48;;;;;;;22.59;55.55;100533.53;10253467;28;96765;-78
2023/07/27 23:36:44;;;;;;;2.67;1.70;;;;;;;22.64;55.20;100534.81;10253659;28;96646;-78